sensor_id;sensor_type;location;lat;lon;timestamp;pressure;altitude;pressure_sealevel;temperature;humidity
18533;BME280;9396;51.510;11.934;2023-04-07T00:01:04;100707.19;;;3.51;81.26
18533;BME280;9396;51.510;11.934;2023-04-07T00:03:31;100775.91;;;4.10;81.64
18533;BME280;9396;51.510;11.934;2023-04-07T00:05:58;100772.94;;;4.27;81.68
18533;BME280;9396;51.510;11.934;2023-04-07T00:08:24;100763.69;;;4.34;80.81
18533;BME280;9396;51.510;11.934;2023-04-07T00:10:52;100769.59;;;4.25;81.27
18533;BME280;9396;51.510;11.934;2023-04-07T00:13:19;100766.31;;;4.09;81.45
18533;BME280;9396;51.510;11.934;2023-04-07T00:15:45;100765.34;;;3.85;80.75
18533;BME280;9396;51.510;11.934;2023-04-07T00:18:12;100765.69;;;3.93;81.41
18533;BME280;9396;51.510;11.934;2023-04-07T00:20:39;100760.56;;;3.78;81.17
18533;BME280;9396;51.510;11.934;2023-04-07T00:23:05;100765.00;;;3.90;81.62
18533;BME280;9396;51.510;11.934;2023-04-07T00:25:32;100755.78;;;4.09;81.17
18533;BME280;9396;51.510;11.934;2023-04-07T00:28:00;100758.41;;;4.22;81.78
18533;BME280;9396;51.510;11.934;2023-04-07T00:30:26;100758.34;;;4.23;81.54
18533;BME280;9396;51.510;11.934;2023-04-07T00:32:53;100757.50;;;4.23;81.51
18533;BME280;9396;51.510;11.934;2023-04-07T00:35:20;100744.44;;;4.21;81.66
18533;BME280;9396;51.510;11.934;2023-04-07T00:37:46;100749.47;;;4.24;81.60
18533;BME280;9396;51.510;11.934;2023-04-07T00:40:13;100746.31;;;4.19;81.23
18533;BME280;9396;51.510;11.934;2023-04-07T00:42:40;100748.84;;;4.08;81.49
18533;BME280;9396;51.510;11.934;2023-04-07T00:45:09;100749.69;;;3.96;81.75
18533;BME280;9396;51.510;11.934;2023-04-07T00:47:35;100753.25;;;3.56;81.59
18533;BME280;9396;51.510;11.934;2023-04-07T00:50:02;100746.03;;;3.72;81.44
18533;BME280;9396;51.510;11.934;2023-04-07T00:52:31;100738.91;;;3.87;81.57
18533;BME280;9396;51.510;11.934;2023-04-07T00:54:58;100743.53;;;3.83;82.33
18533;BME280;9396;51.510;11.934;2023-04-07T00:57:25;100749.16;;;3.52;82.42
18533;BME280;9396;51.510;11.934;2023-04-07T00:59:52;100748.84;;;3.57;81.89
18533;BME280;9396;51.510;11.934;2023-04-07T01:02:24;100736.97;;;3.64;82.72
18533;BME280;9396;51.510;11.934;2023-04-07T01:04:59;100738.28;;;3.83;83.12
18533;BME280;9396;51.510;11.934;2023-04-07T01:07:33;100740.00;;;3.84;82.00
18533;BME280;9396;51.510;11.934;2023-04-07T01:10:02;100738.19;;;3.85;82.40
18533;BME280;9396;51.510;11.934;2023-04-07T01:12:34;100730.09;;;3.88;82.35
18533;BME280;9396;51.510;11.934;2023-04-07T01:15:08;100731.56;;;3.92;81.76
18533;BME280;9396;51.510;11.934;2023-04-07T01:17:38;100726.28;;;3.79;82.41
18533;BME280;9396;51.510;11.934;2023-04-07T01:20:11;100729.91;;;3.52;82.51
18533;BME280;9396;51.510;11.934;2023-04-07T01:22:42;100733.41;;;3.25;82.75
18533;BME280;9396;51.510;11.934;2023-04-07T01:25:32;100726.75;;;3.47;82.97
18533;BME280;9396;51.510;11.934;2023-04-07T01:28:12;100740.78;;;3.33;82.86
18533;BME280;9396;51.510;11.934;2023-04-07T01:30:43;100734.59;;;3.34;83.01
18533;BME280;9396;51.510;11.934;2023-04-07T01:33:11;100726.72;;;3.34;83.71
18533;BME280;9396;51.510;11.934;2023-04-07T01:35:40;100723.34;;;3.32;83.72
18533;BME280;9396;51.510;11.934;2023-04-07T01:38:08;100729.56;;;3.17;83.87
18533;BME280;9396;51.510;11.934;2023-04-07T01:40:37;100730.84;;;3.24;84.02
18533;BME280;9396;51.510;11.934;2023-04-07T01:43:05;100727.94;;;3.28;84.40
18533;BME280;9396;51.510;11.934;2023-04-07T01:45:34;100723.34;;;3.32;83.90
18533;BME280;9396;51.510;11.934;2023-04-07T01:48:04;100722.19;;;3.36;84.43
18533;BME280;9396;51.510;11.934;2023-04-07T01:50:32;100720.63;;;3.46;84.06
18533;BME280;9396;51.510;11.934;2023-04-07T01:52:59;100717.63;;;3.52;83.55
18533;BME280;9396;51.510;11.934;2023-04-07T01:55:26;100722.31;;;3.47;83.91
18533;BME280;9396;51.510;11.934;2023-04-07T01:57:52;100723.34;;;3.32;83.59
18533;BME280;9396;51.510;11.934;2023-04-07T02:00:19;100725.00;;;3.33;84.11
18533;BME280;9396;51.510;11.934;2023-04-07T02:02:48;100723.13;;;3.35;83.40
18533;BME280;9396;51.510;11.934;2023-04-07T02:05:19;100712.47;;;3.24;83.96
18533;BME280;9396;51.510;11.934;2023-04-07T02:07:51;100711.47;;;2.86;84.52
18533;BME280;9396;51.510;11.934;2023-04-07T02:10:24;100720.66;;;2.93;84.38
18533;BME280;9396;51.510;11.934;2023-04-07T02:12:53;100719.22;;;3.01;84.10
18533;BME280;9396;51.510;11.934;2023-04-07T02:15:21;100714.59;;;3.05;84.99
18533;BME280;9396;51.510;11.934;2023-04-07T02:17:51;100710.03;;;2.94;84.35
18533;BME280;9396;51.510;11.934;2023-04-07T02:20:20;100707.13;;;2.99;84.92
18533;BME280;9396;51.510;11.934;2023-04-07T02:22:48;100707.41;;;2.94;84.48
18533;BME280;9396;51.510;11.934;2023-04-07T02:25:24;100705.59;;;2.68;85.68
18533;BME280;9396;51.510;11.934;2023-04-07T02:27:52;100706.75;;;2.91;84.68
18533;BME280;9396;51.510;11.934;2023-04-07T02:30:19;100707.91;;;3.13;84.60
18533;BME280;9396;51.510;11.934;2023-04-07T02:32:46;100703.75;;;3.23;84.77
18533;BME280;9396;51.510;11.934;2023-04-07T02:35:14;100565.22;;;2.47;84.36
18533;BME280;9396;51.510;11.934;2023-04-07T02:37:42;100703.28;;;3.17;84.95
18533;BME280;9396;51.510;11.934;2023-04-07T02:40:09;100702.41;;;3.04;84.19
18533;BME280;9396;51.510;11.934;2023-04-07T02:42:36;100706.56;;;2.94;84.26
18533;BME280;9396;51.510;11.934;2023-04-07T02:45:03;100701.75;;;2.74;85.33
18533;BME280;9396;51.510;11.934;2023-04-07T02:47:30;100703.53;;;2.73;85.01
18533;BME280;9396;51.510;11.934;2023-04-07T02:49:56;100701.09;;;2.70;85.37
18533;BME280;9396;51.510;11.934;2023-04-07T02:52:23;100705.44;;;2.43;85.77
18533;BME280;9396;51.510;11.934;2023-04-07T02:54:51;100699.53;;;2.40;86.80
18533;BME280;9396;51.510;11.934;2023-04-07T02:57:18;100704.00;;;2.66;85.93
18533;BME280;9396;51.510;11.934;2023-04-07T02:59:44;100704.63;;;2.83;86.02
18533;BME280;9396;51.510;11.934;2023-04-07T03:02:11;100699.09;;;2.88;86.37
18533;BME280;9396;51.510;11.934;2023-04-07T03:04:38;100701.34;;;2.80;85.31
18533;BME280;9396;51.510;11.934;2023-04-07T03:07:05;100702.00;;;2.83;85.54
18533;BME280;9396;51.510;11.934;2023-04-07T03:09:31;100697.63;;;2.70;85.49
18533;BME280;9396;51.510;11.934;2023-04-07T03:11:59;100700.47;;;2.67;85.54
18533;BME280;9396;51.510;11.934;2023-04-07T03:14:26;100702.13;;;2.68;85.24
18533;BME280;9396;51.510;11.934;2023-04-07T03:16:53;100695.72;;;2.86;85.90
18533;BME280;9396;51.510;11.934;2023-04-07T03:19:20;100697.34;;;3.01;85.14
18533;BME280;9396;51.510;11.934;2023-04-07T03:21:47;100694.75;;;2.87;85.37
18533;BME280;9396;51.510;11.934;2023-04-07T03:24:13;100692.38;;;2.70;85.40
18533;BME280;9396;51.510;11.934;2023-04-07T03:26:54;100696.28;;;2.77;84.93
18533;BME280;9396;51.510;11.934;2023-04-07T03:29:22;100695.59;;;2.87;85.84
18533;BME280;9396;51.510;11.934;2023-04-07T03:31:49;100695.66;;;3.00;85.04
18533;BME280;9396;51.510;11.934;2023-04-07T03:34:15;100690.75;;;3.08;85.07
18533;BME280;9396;51.510;11.934;2023-04-07T03:36:42;100691.41;;;3.11;85.14
18533;BME280;9396;51.510;11.934;2023-04-07T03:39:08;100693.19;;;3.11;84.45
18533;BME280;9396;51.510;11.934;2023-04-07T03:41:35;100692.50;;;2.95;83.81
18533;BME280;9396;51.510;11.934;2023-04-07T03:44:02;100693.13;;;2.98;84.27
18533;BME280;9396;51.510;11.934;2023-04-07T03:46:30;100685.16;;;3.00;84.73
18533;BME280;9396;51.510;11.934;2023-04-07T03:48:56;100682.00;;;2.95;84.86
18533;BME280;9396;51.510;11.934;2023-04-07T03:51:23;100694.59;;;2.90;84.58
18533;BME280;9396;51.510;11.934;2023-04-07T03:53:49;100686.69;;;2.90;85.51
18533;BME280;9396;51.510;11.934;2023-04-07T03:56:16;100688.00;;;2.97;85.40
18533;BME280;9396;51.510;11.934;2023-04-07T03:58:43;100698.13;;;2.89;84.76
18533;BME280;9396;51.510;11.934;2023-04-07T04:01:11;100515.72;;;1.74;85.09
18533;BME280;9396;51.510;11.934;2023-04-07T04:03:39;100688.69;;;2.86;85.48
18533;BME280;9396;51.510;11.934;2023-04-07T04:06:05;100687.63;;;2.89;85.20
18533;BME280;9396;51.510;11.934;2023-04-07T04:08:32;100692.78;;;2.90;84.86
18533;BME280;9396;51.510;11.934;2023-04-07T04:10:59;100685.91;;;3.02;84.89
18533;BME280;9396;51.510;11.934;2023-04-07T04:13:25;100690.19;;;3.03;85.23
18533;BME280;9396;51.510;11.934;2023-04-07T04:15:52;100686.81;;;3.01;84.33
18533;BME280;9396;51.510;11.934;2023-04-07T04:18:19;100692.84;;;3.03;84.56
18533;BME280;9396;51.510;11.934;2023-04-07T04:20:47;100692.66;;;3.06;85.33
18533;BME280;9396;51.510;11.934;2023-04-07T04:23:13;100572.16;;;2.34;84.46
18533;BME280;9396;51.510;11.934;2023-04-07T04:25:40;100695.66;;;3.00;84.53
18533;BME280;9396;51.510;11.934;2023-04-07T04:28:06;100694.16;;;2.69;85.20
18533;BME280;9396;51.510;11.934;2023-04-07T04:30:33;100692.56;;;2.67;84.72
18533;BME280;9396;51.510;11.934;2023-04-07T04:33:00;100701.75;;;2.74;85.52
18533;BME280;9396;51.510;11.934;2023-04-07T04:35:27;100700.88;;;2.87;85.07
18533;BME280;9396;51.510;11.934;2023-04-07T04:37:55;100699.84;;;2.90;85.23
18533;BME280;9396;51.510;11.934;2023-04-07T04:40:21;100708.31;;;2.81;85.10
18533;BME280;9396;51.510;11.934;2023-04-07T04:42:48;100701.53;;;2.77;85.18
18533;BME280;9396;51.510;11.934;2023-04-07T04:45:15;100702.66;;;2.73;85.51
18533;BME280;9396;51.510;11.934;2023-04-07T04:47:41;100706.28;;;2.44;85.27
18533;BME280;9396;51.510;11.934;2023-04-07T04:50:09;100539.91;;;1.21;85.93
18533;BME280;9396;51.510;11.934;2023-04-07T04:52:36;100704.31;;;2.19;87.41
18533;BME280;9396;51.510;11.934;2023-04-07T04:55:06;100711.16;;;2.36;86.59
18533;BME280;9396;51.510;11.934;2023-04-07T04:57:32;100703.59;;;2.31;87.15
18533;BME280;9396;51.510;11.934;2023-04-07T05:00:00;100709.50;;;2.21;87.83
18533;BME280;9396;51.510;11.934;2023-04-07T05:02:28;100707.03;;;2.32;87.63
18533;BME280;9396;51.510;11.934;2023-04-07T05:04:54;100715.66;;;2.48;86.85
18533;BME280;9396;51.510;11.934;2023-04-07T05:07:21;100716.78;;;2.15;86.44
18533;BME280;9396;51.510;11.934;2023-04-07T05:09:48;100714.25;;;2.14;86.31
18533;BME280;9396;51.510;11.934;2023-04-07T05:12:16;100717.53;;;2.32;87.07
18533;BME280;9396;51.510;11.934;2023-04-07T05:14:42;100715.66;;;2.48;86.67
18533;BME280;9396;51.510;11.934;2023-04-07T05:17:09;100712.09;;;2.63;86.09
18533;BME280;9396;51.510;11.934;2023-04-07T05:19:35;100719.28;;;2.73;85.96
18533;BME280;9396;51.510;11.934;2023-04-07T05:22:02;100720.50;;;2.68;86.48
18533;BME280;9396;51.510;11.934;2023-04-07T05:24:29;100718.44;;;2.59;86.02
18533;BME280;9396;51.510;11.934;2023-04-07T05:26:55;100721.72;;;2.62;86.94
18533;BME280;9396;51.510;11.934;2023-04-07T05:29:24;100725.41;;;2.60;86.73
18533;BME280;9396;51.510;11.934;2023-04-07T05:31:50;100724.91;;;2.67;86.72
18533;BME280;9396;51.510;11.934;2023-04-07T05:34:17;100719.56;;;2.83;85.94
18533;BME280;9396;51.510;11.934;2023-04-07T05:36:43;100717.28;;;2.91;86.63
18533;BME280;9396;51.510;11.934;2023-04-07T05:39:10;100715.94;;;2.98;86.26
18533;BME280;9396;51.510;11.934;2023-04-07T05:41:36;100722.97;;;2.97;85.59
18533;BME280;9396;51.510;11.934;2023-04-07T05:44:03;100722.59;;;2.49;86.05
18533;BME280;9396;51.510;11.934;2023-04-07T05:46:32;100720.16;;;2.60;86.89
18533;BME280;9396;51.510;11.934;2023-04-07T05:48:58;100720.25;;;2.44;86.71
18533;BME280;9396;51.510;11.934;2023-04-07T05:51:25;100709.22;;;2.80;86.40
18533;BME280;9396;51.510;11.934;2023-04-07T05:53:52;100716.38;;;3.70;89.08
18533;BME280;9396;51.510;11.934;2023-04-07T05:56:18;100703.59;;;5.01;86.83
18533;BME280;9396;51.510;11.934;2023-04-07T05:58:45;100703.44;;;6.41;81.06
18533;BME280;9396;51.510;11.934;2023-04-07T06:01:12;100696.88;;;7.43;74.18
18533;BME280;9396;51.510;11.934;2023-04-07T06:03:40;100696.00;;;7.95;71.08
18533;BME280;9396;51.510;11.934;2023-04-07T06:06:07;100698.47;;;7.66;70.14
18533;BME280;9396;51.510;11.934;2023-04-07T06:08:34;100704.28;;;7.81;70.14
18533;BME280;9396;51.510;11.934;2023-04-07T06:11:01;100689.47;;;8.19;67.92
18533;BME280;9396;51.510;11.934;2023-04-07T06:13:27;100693.75;;;9.30;66.24
18533;BME280;9396;51.510;11.934;2023-04-07T06:15:54;100697.25;;;9.78;63.20
18533;BME280;9396;51.510;11.934;2023-04-07T06:18:21;100687.94;;;10.20;62.51
18533;BME280;9396;51.510;11.934;2023-04-07T06:20:49;100699.63;;;9.71;61.66
18533;BME280;9396;51.510;11.934;2023-04-07T06:23:15;100700.44;;;9.82;62.76
18533;BME280;9396;51.510;11.934;2023-04-07T06:25:42;100705.00;;;8.03;63.13
18533;BME280;9396;51.510;11.934;2023-04-07T06:28:09;100713.28;;;8.30;64.38
18533;BME280;9396;51.510;11.934;2023-04-07T06:30:36;100720.06;;;7.19;66.51
18533;BME280;9396;51.510;11.934;2023-04-07T06:33:04;100712.47;;;8.39;66.12
18533;BME280;9396;51.510;11.934;2023-04-07T06:35:31;100706.41;;;8.58;65.98
18533;BME280;9396;51.510;11.934;2023-04-07T06:37:59;100701.84;;;9.28;62.45
18533;BME280;9396;51.510;11.934;2023-04-07T06:40:26;100714.81;;;7.92;63.96
18533;BME280;9396;51.510;11.934;2023-04-07T06:42:53;100701.97;;;9.17;63.19
18533;BME280;9396;51.510;11.934;2023-04-07T06:45:20;100698.66;;;10.74;62.67
18533;BME280;9396;51.510;11.934;2023-04-07T06:47:47;100715.84;;;9.30;62.20
18533;BME280;9396;51.510;11.934;2023-04-07T06:50:14;100712.19;;;9.31;61.23
18533;BME280;9396;51.510;11.934;2023-04-07T06:52:44;100697.09;;;10.45;63.00
18533;BME280;9396;51.510;11.934;2023-04-07T06:55:13;100690.94;;;11.61;59.39
18533;BME280;9396;51.510;11.934;2023-04-07T06:57:39;100680.34;;;11.16;58.23
18533;BME280;9396;51.510;11.934;2023-04-07T07:00:07;100702.50;;;10.90;59.37
18533;BME280;9396;51.510;11.934;2023-04-07T07:02:34;100695.31;;;11.00;59.38
18533;BME280;9396;51.510;11.934;2023-04-07T07:05:01;100700.66;;;10.36;60.05
18533;BME280;9396;51.510;11.934;2023-04-07T07:07:28;100704.19;;;10.27;60.40
18533;BME280;9396;51.510;11.934;2023-04-07T07:09:55;100697.13;;;9.70;61.01
18533;BME280;9396;51.510;11.934;2023-04-07T07:12:23;100700.38;;;10.29;61.08
18533;BME280;9396;51.510;11.934;2023-04-07T07:14:50;100698.47;;;10.86;59.67
18533;BME280;9396;51.510;11.934;2023-04-07T07:17:16;100700.19;;;10.77;60.61
18533;BME280;9396;51.510;11.934;2023-04-07T07:19:43;100708.31;;;9.73;61.50
18533;BME280;9396;51.510;11.934;2023-04-07T07:22:09;100699.81;;;10.35;62.29
18533;BME280;9396;51.510;11.934;2023-04-07T07:24:36;100690.72;;;11.37;60.54
18533;BME280;9396;51.510;11.934;2023-04-07T07:27:02;100683.91;;;12.46;58.88
18533;BME280;9396;51.510;11.934;2023-04-07T07:29:30;100697.63;;;11.82;58.57
18533;BME280;9396;51.510;11.934;2023-04-07T07:31:57;100706.06;;;10.53;59.19
18533;BME280;9396;51.510;11.934;2023-04-07T07:34:24;100712.97;;;10.27;61.27
18533;BME280;9396;51.510;11.934;2023-04-07T07:36:50;100701.44;;;11.45;61.11
18533;BME280;9396;51.510;11.934;2023-04-07T07:39:17;100704.75;;;11.74;59.59
18533;BME280;9396;51.510;11.934;2023-04-07T07:41:43;100696.00;;;12.58;58.87
18533;BME280;9396;51.510;11.934;2023-04-07T07:44:11;100710.97;;;11.65;57.77
18533;BME280;9396;51.510;11.934;2023-04-07T07:46:39;100709.44;;;11.98;59.38
18533;BME280;9396;51.510;11.934;2023-04-07T07:49:05;100704.09;;;12.82;57.88
18533;BME280;9396;51.510;11.934;2023-04-07T07:51:32;100711.44;;;11.60;58.62
18533;BME280;9396;51.510;11.934;2023-04-07T07:53:58;100718.19;;;10.93;59.27
18533;BME280;9396;51.510;11.934;2023-04-07T07:56:25;100716.66;;;10.90;60.79
18533;BME280;9396;51.510;11.934;2023-04-07T07:58:52;100723.03;;;10.33;61.48
18533;BME280;9396;51.510;11.934;2023-04-07T08:01:18;100721.69;;;9.72;61.98
18533;BME280;9396;51.510;11.934;2023-04-07T08:03:46;100731.97;;;9.08;64.45
18533;BME280;9396;51.510;11.934;2023-04-07T08:06:13;100727.03;;;9.62;65.06
18533;BME280;9396;51.510;11.934;2023-04-07T08:08:40;100730.25;;;9.56;62.98
18533;BME280;9396;51.510;11.934;2023-04-07T08:11:07;100726.56;;;10.05;63.89
18533;BME280;9396;51.510;11.934;2023-04-07T08:13:34;100722.72;;;10.82;62.69
18533;BME280;9396;51.510;11.934;2023-04-07T08:16:00;100732.50;;;10.55;61.11
18533;BME280;9396;51.510;11.934;2023-04-07T08:18:27;100733.97;;;10.30;62.49
18533;BME280;9396;51.510;11.934;2023-04-07T08:20:55;100734.75;;;11.14;61.90
18533;BME280;9396;51.510;11.934;2023-04-07T08:23:22;100734.56;;;10.98;60.72
18533;BME280;9396;51.510;11.934;2023-04-07T08:25:48;100740.25;;;11.30;62.50
18533;BME280;9396;51.510;11.934;2023-04-07T08:28:15;100734.91;;;11.74;62.95
18533;BME280;9396;51.510;11.934;2023-04-07T08:30:41;100739.34;;;11.39;59.54
18533;BME280;9396;51.510;11.934;2023-04-07T08:33:08;100740.25;;;11.30;61.89
18533;BME280;9396;51.510;11.934;2023-04-07T08:35:35;100753.28;;;10.78;60.19
18533;BME280;9396;51.510;11.934;2023-04-07T08:38:03;100758.78;;;10.58;60.71
18533;BME280;9396;51.510;11.934;2023-04-07T08:40:31;100749.88;;;10.49;61.63
18533;BME280;9396;51.510;11.934;2023-04-07T08:42:59;100746.66;;;10.55;62.27
18533;BME280;9396;51.510;11.934;2023-04-07T08:45:26;100761.06;;;10.43;60.38
18533;BME280;9396;51.510;11.934;2023-04-07T08:47:54;100760.09;;;10.44;61.15
18533;BME280;9396;51.510;11.934;2023-04-07T08:50:25;100754.63;;;10.82;59.81
18533;BME280;9396;51.510;11.934;2023-04-07T08:52:53;100756.31;;;10.47;60.03
18533;BME280;9396;51.510;11.934;2023-04-07T08:55:22;100745.09;;;10.53;59.81
18533;BME280;9396;51.510;11.934;2023-04-07T08:57:50;100745.38;;;10.87;61.81
18533;BME280;9396;51.510;11.934;2023-04-07T09:00:18;100751.56;;;11.14;59.67
18533;BME280;9396;51.510;11.934;2023-04-07T09:02:46;100749.88;;;10.49;59.33
18533;BME280;9396;51.510;11.934;2023-04-07T09:05:13;100756.31;;;10.47;58.89
18533;BME280;9396;51.510;11.934;2023-04-07T09:07:40;100748.44;;;10.92;60.15
18533;BME280;9396;51.510;11.934;2023-04-07T09:10:08;100750.66;;;10.96;60.19
18533;BME280;9396;51.510;11.934;2023-04-07T09:12:36;100744.50;;;11.23;59.73
18533;BME280;9396;51.510;11.934;2023-04-07T09:15:04;100741.75;;;11.50;58.96
18533;BME280;9396;51.510;11.934;2023-04-07T09:17:31;100752.50;;;11.23;57.62
18533;BME280;9396;51.510;11.934;2023-04-07T09:19:59;100722.09;;;10.98;58.66
18533;BME280;9396;51.510;11.934;2023-04-07T09:22:36;100751.06;;;10.64;58.85
18533;BME280;9396;51.510;11.934;2023-04-07T09:25:12;100747.25;;;11.04;59.02
18533;BME280;9396;51.510;11.934;2023-04-07T09:27:52;100749.69;;;11.59;58.88
18533;BME280;9396;51.510;11.934;2023-04-07T09:30:19;100743.19;;;11.27;57.91
18533;BME280;9396;51.510;11.934;2023-04-07T09:32:46;100756.03;;;11.14;55.91
18533;BME280;9396;51.510;11.934;2023-04-07T09:35:13;100753.69;;;10.74;57.38
18533;BME280;9396;51.510;11.934;2023-04-07T09:37:39;100754.47;;;10.57;57.44
18533;BME280;9396;51.510;11.934;2023-04-07T09:40:08;100752.13;;;10.44;58.39
18533;BME280;9396;51.510;11.934;2023-04-07T09:42:34;100746.44;;;10.66;58.84
18533;BME280;9396;51.510;11.934;2023-04-07T09:45:11;100737.78;;;10.92;59.37
18533;BME280;9396;51.510;11.934;2023-04-07T09:47:38;100744.69;;;10.85;57.67
18533;BME280;9396;51.510;11.934;2023-04-07T09:50:05;100748.13;;;10.67;58.16
18533;BME280;9396;51.510;11.934;2023-04-07T09:52:48;100741.25;;;10.74;57.79
18533;BME280;9396;51.510;11.934;2023-04-07T09:55:16;100745.34;;;10.59;56.77
18533;BME280;9396;51.510;11.934;2023-04-07T09:57:44;100739.22;;;10.49;56.40
18533;BME280;9396;51.510;11.934;2023-04-07T10:00:13;100744.22;;;10.62;57.95
18533;BME280;9396;51.510;11.934;2023-04-07T10:02:41;100741.63;;;10.79;57.02
18533;BME280;9396;51.510;11.934;2023-04-07T10:05:08;100738.03;;;10.71;57.29
18533;BME280;9396;51.510;11.934;2023-04-07T10:07:35;100739.13;;;10.78;57.37
18533;BME280;9396;51.510;11.934;2023-04-07T10:10:02;100737.03;;;10.72;57.19
18533;BME280;9396;51.510;11.934;2023-04-07T10:12:32;100733.19;;;11.11;57.44
18533;BME280;9396;51.510;11.934;2023-04-07T10:14:59;100728.78;;;11.20;56.37
18533;BME280;9396;51.510;11.934;2023-04-07T10:17:28;100721.66;;;11.38;56.95
18533;BME280;9396;51.510;11.934;2023-04-07T10:19:57;100723.75;;;10.99;57.71
18533;BME280;9396;51.510;11.934;2023-04-07T10:22:24;100727.53;;;11.24;56.92
18533;BME280;9396;51.510;11.934;2023-04-07T10:24:55;100728.16;;;10.91;56.99
18533;BME280;9396;51.510;11.934;2023-04-07T10:27:28;100722.72;;;11.10;59.71
18533;BME280;9396;51.510;11.934;2023-04-07T10:29:57;100724.53;;;11.27;58.56
18533;BME280;9396;51.510;11.934;2023-04-07T10:32:24;100722.47;;;11.48;58.91
18533;BME280;9396;51.510;11.934;2023-04-07T10:35:01;100732.31;;;11.38;58.47
18533;BME280;9396;51.510;11.934;2023-04-07T10:37:27;100728.88;;;11.10;58.53
18533;BME280;9396;51.510;11.934;2023-04-07T10:40:28;100722.09;;;10.98;58.18
18533;BME280;9396;51.510;11.934;2023-04-07T10:42:56;100728.03;;;11.10;58.98
18533;BME280;9396;51.510;11.934;2023-04-07T10:45:51;100674.59;;;10.94;59.34
18533;BME280;9396;51.510;11.934;2023-04-07T10:48:19;100721.09;;;11.44;60.45
18533;BME280;9396;51.510;11.934;2023-04-07T10:51:14;100718.88;;;11.57;59.80
18533;BME280;9396;51.510;11.934;2023-04-07T10:57:08;100731.69;;;11.53;58.82
18533;BME280;9396;51.510;11.934;2023-04-07T10:59:37;100720.31;;;11.34;58.81
18533;BME280;9396;51.510;11.934;2023-04-07T11:02:32;100718.69;;;11.23;58.72
18533;BME280;9396;51.510;11.934;2023-04-07T11:05:01;100717.00;;;11.67;59.37
18533;BME280;9396;51.510;11.934;2023-04-07T11:07:49;100719.31;;;11.52;58.30
18533;BME280;9396;51.510;11.934;2023-04-07T11:10:16;100722.34;;;11.22;58.42
18533;BME280;9396;51.510;11.934;2023-04-07T11:12:57;100717.03;;;11.22;59.05
18533;BME280;9396;51.510;11.934;2023-04-07T11:15:24;100722.41;;;11.30;58.40
18533;BME280;9396;51.510;11.934;2023-04-07T11:18:14;100714.69;;;11.54;61.12
18533;BME280;9396;51.510;11.934;2023-04-07T11:20:46;100708.75;;;11.60;59.21
18533;BME280;9396;51.510;11.934;2023-04-07T11:23:15;100718.00;;;11.83;59.07
18533;BME280;9396;51.510;11.934;2023-04-07T11:25:43;100711.84;;;11.65;58.70
18533;BME280;9396;51.510;11.934;2023-04-07T11:28:12;100713.06;;;11.71;58.46
18533;BME280;9396;51.510;11.934;2023-04-07T11:30:45;100710.19;;;11.90;59.04
18533;BME280;9396;51.510;11.934;2023-04-07T11:33:17;100713.84;;;11.89;59.10
18533;BME280;9396;51.510;11.934;2023-04-07T11:35:52;100707.53;;;11.90;58.06
18533;BME280;9396;51.510;11.934;2023-04-07T11:38:22;100700.09;;;11.41;58.43
18533;BME280;9396;51.510;11.934;2023-04-07T11:40:48;100708.28;;;11.47;59.21
18533;BME280;9396;51.510;11.934;2023-04-07T11:43:20;100713.66;;;11.65;58.62
18533;BME280;9396;51.510;11.934;2023-04-07T11:46:02;100717.13;;;11.48;58.84
18533;BME280;9396;51.510;11.934;2023-04-07T11:48:30;100717.66;;;11.34;58.50
18533;BME280;9396;51.510;11.934;2023-04-07T11:50:58;100716.03;;;11.23;58.85
18533;BME280;9396;51.510;11.934;2023-04-07T11:53:27;100714.38;;;11.40;59.27
18533;BME280;9396;51.510;11.934;2023-04-07T11:56:01;100710.50;;;11.69;58.87
18533;BME280;9396;51.510;11.934;2023-04-07T11:58:28;100708.94;;;11.76;58.76
18533;BME280;9396;51.510;11.934;2023-04-07T12:00:55;100707.22;;;11.93;59.61
18533;BME280;9396;51.510;11.934;2023-04-07T12:03:22;100710.13;;;11.82;58.54
18533;BME280;9396;51.510;11.934;2023-04-07T12:05:49;100714.63;;;11.81;58.29
18533;BME280;9396;51.510;11.934;2023-04-07T12:08:16;100704.56;;;11.93;58.31
18533;BME280;9396;51.510;11.934;2023-04-07T12:10:45;100710.41;;;11.97;57.07
18533;BME280;9396;51.510;11.934;2023-04-07T12:13:13;100706.81;;;12.06;57.51
18533;BME280;9396;51.510;11.934;2023-04-07T12:15:40;100696.75;;;12.17;57.68
18533;BME280;9396;51.510;11.934;2023-04-07T12:18:06;100690.31;;;12.28;57.30
18533;BME280;9396;51.510;11.934;2023-04-07T12:20:33;100704.66;;;12.09;56.09
18533;BME280;9396;51.510;11.934;2023-04-07T12:22:59;100703.94;;;11.99;57.24
18533;BME280;9396;51.510;11.934;2023-04-07T12:25:26;100706.66;;;11.81;56.43
18533;BME280;9396;51.510;11.934;2023-04-07T12:27:54;100703.59;;;11.76;57.09
18533;BME280;9396;51.510;11.934;2023-04-07T12:30:21;100705.25;;;11.95;57.27
18533;BME280;9396;51.510;11.934;2023-04-07T12:32:47;100705.34;;;11.68;56.88
18533;BME280;9396;51.510;11.934;2023-04-07T12:35:14;100699.84;;;11.87;57.21
18533;BME280;9396;51.510;11.934;2023-04-07T12:37:41;100705.94;;;11.79;56.48
18533;BME280;9396;51.510;11.934;2023-04-07T12:40:08;100699.28;;;12.01;57.06
18533;BME280;9396;51.510;11.934;2023-04-07T12:42:35;100696.25;;;12.22;56.94
18533;BME280;9396;51.510;11.934;2023-04-07T12:45:04;100700.38;;;12.16;56.28
18533;BME280;9396;51.510;11.934;2023-04-07T12:47:30;100707.97;;;11.85;55.30
18533;BME280;9396;51.510;11.934;2023-04-07T12:49:58;100705.47;;;11.84;55.41
18533;BME280;9396;51.510;11.934;2023-04-07T12:52:24;100708.03;;;12.11;56.38
18533;BME280;9396;51.510;11.934;2023-04-07T12:54:51;100701.97;;;12.01;56.53
18533;BME280;9396;51.510;11.934;2023-04-07T12:57:18;100699.78;;;12.22;56.30
18533;BME280;9396;51.510;11.934;2023-04-07T12:59:45;100699.50;;;12.08;56.81
18533;BME280;9396;51.510;11.934;2023-04-07T13:02:13;100700.22;;;11.92;55.32
18533;BME280;9396;51.510;11.934;2023-04-07T13:04:42;100558.84;;;11.33;57.45